Time;durP1;ratioP1;P1;durP2;ratioP2;P2;SDS_P1;SDS_P2;PMS_P1;PMS_P2;Temp;Humidity;BMP_temperature;BMP_pressure;BME280_temperature;BME280_humidity;BME280_pressure;Samples;Min_cycle;Max_cycle;Signal;HPM_P1;HPM_P2
2022/01/18 00:00:27;;;;;;;31.83;12.57;;;;;;;;;;6268353;28;20048;-72
2022/01/18 00:03:28;;;;;;;36.30;10.45;;;;;;;;;;6243552;28;20030;-71
2022/01/18 00:06:28;;;;;;;11.00;5.38;;;;;;;;;;6242897;28;20036;-71
2022/01/18 00:09:28;;;;;;;23.35;8.05;;;;;;;;;;6242872;28;20025;-71
2022/01/18 00:15:37;;;;;;;33.28;11.40;;;;;;;;;;6242941;28;20033;-71
2022/01/18 00:18:38;;;;;;;33.22;11.60;;;;;;;;;;6246135;28;20112;-72
2022/01/18 00:22:24;;;;;;;25.80;11.27;;;;;;;;;;6250948;28;20025;-72
2022/01/18 00:25:00;;;;;;;21.67;7.78;;;;;;;;;;6233678;28;20079;-72
2022/01/18 00:28:01;;;;;;;21.98;10.35;;;;;;;;;;6247848;28;20025;-71
2022/01/18 00:40:07;;;;;;;33.42;11.18;;;;;;;;;;6254159;28;20139;-71
2022/01/18 00:43:07;;;;;;;18.27;8.55;;;;;;;;;;6268170;28;20017;-71
2022/01/18 00:46:08;;;;;;;21.60;8.32;;;;;;;;;;6248423;28;20030;-71
2022/01/18 00:49:10;;;;;;;27.55;9.65;;;;;;;;;;6242286;28;20072;-71
2022/01/18 00:52:10;;;;;;;39.55;13.73;;;;;;;;;;6242848;28;20020;-72
2022/01/18 00:55:13;;;;;;;34.85;9.40;;;;;;;;;;6242503;28;20037;-71
2022/01/18 00:58:14;;;;;;;32.50;10.07;;;;;;;;;;6264336;28;20212;-71
2022/01/18 01:01:15;;;;;;;28.50;9.70;;;;;;;;;;6260656;28;20350;-71
2022/01/18 01:04:18;;;;;;;38.70;9.20;;;;;;;;;;6242249;28;20025;-74
2022/01/18 01:07:20;;;;;;;26.52;7.53;;;;;;;;;;6242024;28;20496;-71
2022/01/18 01:10:20;;;;;;;27.92;11.82;;;;;;;;;;6253009;28;20097;-71
2022/01/18 01:13:21;;;;;;;32.78;9.95;;;;;;;;;;6265087;28;20021;-71
2022/01/18 01:16:46;;;;;;;22.15;7.47;;;;;;;;;;6266577;28;20429;-71
2022/01/18 01:36:11;;;;;;;17.98;6.63;;;;;;;;;;6240871;28;20052;-71
2022/01/18 01:45:54;;;;;;;22.58;7.38;;;;;;;;;;6256770;28;20436;-71
2022/01/18 01:48:58;;;;;;;13.65;5.00;;;;;;;;;;6266062;28;20053;-71
2022/01/18 01:51:58;;;;;;;16.85;7.22;;;;;;;;;;6249763;28;20033;-71
2022/01/18 01:54:58;;;;;;;14.45;6.88;;;;;;;;;;6242064;28;20025;-71
2022/01/18 01:57:59;;;;;;;15.02;6.53;;;;;;;;;;6261166;28;20035;-71
2022/01/18 02:01:04;;;;;;;15.30;5.95;;;;;;;;;;6261553;28;20438;-71
2022/01/18 02:04:04;;;;;;;17.02;5.97;;;;;;;;;;6241619;28;20444;-71
2022/01/18 02:07:05;;;;;;;24.67;7.00;;;;;;;;;;6241689;28;20026;-71
2022/01/18 02:10:10;;;;;;;15.60;5.40;;;;;;;;;;6243103;28;20447;-71
2022/01/18 02:13:13;;;;;;;20.20;5.38;;;;;;;;;;6241461;28;20384;-71
2022/01/18 02:21:45;;;;;;;14.10;6.20;;;;;;;;;;6241974;28;20010;-71
2022/01/18 02:23:12;;;;;;;17.52;5.78;;;;;;;;;;6165478;28;20519;-72
2022/01/18 02:26:13;;;;;;;21.92;7.30;;;;;;;;;;6173684;28;20025;-71
2022/01/18 02:29:14;;;;;;;10.13;6.15;;;;;;;;;;6241618;28;20549;-71
2022/01/18 02:32:14;;;;;;;13.90;6.82;;;;;;;;;;6245945;28;20029;-71
2022/01/18 02:35:14;;;;;;;19.08;6.40;;;;;;;;;;6245413;28;20041;-71
2022/01/18 02:38:15;;;;;;;16.65;6.00;;;;;;;;;;6245550;28;20502;-71
2022/01/18 02:41:29;;;;;;;16.33;5.30;;;;;;;;;;6266506;28;20021;-71
2022/01/18 02:44:30;;;;;;;20.70;6.60;;;;;;;;;;6264569;28;20029;-71
2022/01/18 02:47:30;;;;;;;23.52;7.10;;;;;;;;;;6245197;28;20084;-71
2022/01/18 02:50:31;;;;;;;13.00;5.18;;;;;;;;;;6245958;28;20033;-71
2022/01/18 02:53:31;;;;;;;15.52;6.10;;;;;;;;;;6245331;28;20470;-71
2022/01/18 02:56:36;;;;;;;12.57;5.82;;;;;;;;;;6253669;28;20387;-72
2022/01/18 02:59:49;;;;;;;17.15;6.13;;;;;;;;;;6269769;28;20017;-71
2022/01/18 03:06:08;;;;;;;25.25;7.13;;;;;;;;;;6245357;28;20420;-71
2022/01/18 03:09:08;;;;;;;17.15;8.52;;;;;;;;;;6244688;28;20031;-71
2022/01/18 03:12:09;;;;;;;14.75;5.30;;;;;;;;;;6246996;28;20219;-71
2022/01/18 03:15:10;;;;;;;19.33;8.43;;;;;;;;;;6245154;28;20053;-71
2022/01/18 03:18:10;;;;;;;19.02;5.93;;;;;;;;;;6252937;28;20096;-71
2022/01/18 03:21:11;;;;;;;21.08;7.38;;;;;;;;;;6256158;28;20108;-71
2022/01/18 03:24:43;;;;;;;16.58;7.00;;;;;;;;;;6261936;28;20389;-71
2022/01/18 03:30:57;;;;;;;13.88;5.43;;;;;;;;;;6244997;28;20037;-70
2022/01/18 03:33:57;;;;;;;25.58;5.22;;;;;;;;;;6244039;28;20136;-71
2022/01/18 03:36:58;;;;;;;18.15;7.15;;;;;;;;;;6243053;28;20032;-70
2022/01/18 03:39:58;;;;;;;10.70;3.50;;;;;;;;;;6253340;28;20461;-70
2022/01/18 03:42:59;;;;;;;11.75;4.38;;;;;;;;;;6268849;28;20025;-70
2022/01/18 03:46:02;;;;;;;15.20;5.80;;;;;;;;;;6251113;28;20025;-70
2022/01/18 03:49:04;;;;;;;15.90;5.80;;;;;;;;;;6244028;28;20100;-71
2022/01/18 03:52:04;;;;;;;22.33;6.97;;;;;;;;;;6244023;28;20408;-70
2022/01/18 03:55:05;;;;;;;20.00;6.15;;;;;;;;;;6245958;28;20029;-70
2022/01/18 03:58:06;;;;;;;14.15;4.72;;;;;;;;;;6264482;28;20519;-70
2022/01/18 04:01:06;;;;;;;9.90;4.63;;;;;;;;;;6263521;28;20018;-70
2022/01/18 04:04:06;;;;;;;9.43;4.05;;;;;;;;;;6243586;28;20029;-70
2022/01/18 04:07:07;;;;;;;13.27;5.32;;;;;;;;;;6243877;28;20393;-70
2022/01/18 04:10:08;;;;;;;11.82;4.82;;;;;;;;;;6246479;28;20033;-70
2022/01/18 04:13:08;;;;;;;16.90;5.28;;;;;;;;;;6243844;28;20064;-69
2022/01/18 04:16:08;;;;;;;10.82;5.28;;;;;;;;;;6268139;28;20021;-69
2022/01/18 04:25:56;;;;;;;18.88;5.78;;;;;;;;;;6256307;28;20032;-69
2022/01/18 04:28:57;;;;;;;15.50;5.60;;;;;;;;;;6245521;28;20025;-69
2022/01/18 04:31:58;;;;;;;19.60;5.72;;;;;;;;;;6241523;28;20064;-69
2022/01/18 04:34:58;;;;;;;12.15;5.10;;;;;;;;;;6243034;28;20057;-69
2022/01/18 04:37:58;;;;;;;12.68;4.97;;;;;;;;;;6242384;28;20444;-69
2022/01/18 04:41:04;;;;;;;17.67;4.95;;;;;;;;;;6261314;28;20048;-69
2022/01/18 04:48:23;;;;;;;21.00;6.35;;;;;;;;;;6265049;28;20090;-69
2022/01/18 04:50:47;;;;;;;19.13;8.77;;;;;;;;;;6242438;28;20022;-69
2022/01/18 04:53:51;;;;;;;15.15;5.72;;;;;;;;;;6242435;28;20381;-69
2022/01/18 04:59:52;;;;;;;18.20;6.47;;;;;;;;;;6267021;28;20021;-69
2022/01/18 05:02:53;;;;;;;30.27;8.90;;;;;;;;;;6247828;28;20404;-69
2022/01/18 05:05:56;;;;;;;19.95;7.35;;;;;;;;;;6242265;28;20021;-69
2022/01/18 05:09:00;;;;;;;23.92;8.50;;;;;;;;;;6244101;28;20318;-69
2022/01/18 05:12:07;;;;;;;24.92;6.03;;;;;;;;;;6258398;28;20325;-68
2022/01/18 05:15:22;;;;;;;19.83;6.57;;;;;;;;;;6255054;28;20025;-68
2022/01/18 05:24:49;;;;;;;11.57;4.95;;;;;;;;;;6245796;28;20501;-68
2022/01/18 05:27:49;;;;;;;24.73;6.93;;;;;;;;;;6253846;28;20071;-68
2022/01/18 05:30:50;;;;;;;18.52;6.03;;;;;;;;;;6241868;28;20025;-68
2022/01/18 05:33:50;;;;;;;22.98;6.75;;;;;;;;;;6241810;28;20097;-68
2022/01/18 05:36:50;;;;;;;31.23;9.38;;;;;;;;;;6242503;28;20360;-68
2022/01/18 05:39:51;;;;;;;19.83;7.70;;;;;;;;;;6250582;28;20112;-68
2022/01/18 05:42:51;;;;;;;18.02;7.97;;;;;;;;;;6266627;28;20108;-68
2022/01/18 05:45:51;;;;;;;12.30;5.10;;;;;;;;;;6249774;28;20036;-68
2022/01/18 05:48:52;;;;;;;15.77;5.65;;;;;;;;;;6241884;28;20084;-68
2022/01/18 05:51:52;;;;;;;12.57;4.95;;;;;;;;;;6246260;28;20108;-68
2022/01/18 05:54:52;;;;;;;15.30;6.93;;;;;;;;;;6265926;28;20346;-68
2022/01/18 05:57:52;;;;;;;18.63;6.10;;;;;;;;;;6261830;28;20017;-68
2022/01/18 06:00:54;;;;;;;9.65;5.18;;;;;;;;;;6250450;28;20010;-68
2022/01/18 06:06:57;;;;;;;12.20;6.20;;;;;;;;;;6246387;28;20105;-68
2022/01/18 06:09:58;;;;;;;15.88;7.13;;;;;;;;;;6254668;28;20025;-68
2022/01/18 06:13:01;;;;;;;19.83;5.93;;;;;;;;;;6270636;28;20059;-68
2022/01/18 06:16:02;;;;;;;19.17;6.35;;;;;;;;;;6266100;28;20035;-68
2022/01/18 06:19:02;;;;;;;26.80;7.97;;;;;;;;;;6257519;28;20532;-68
2022/01/18 06:22:03;;;;;;;16.88;6.25;;;;;;;;;;6268091;28;20016;-68
2022/01/18 06:25:04;;;;;;;17.20;7.20;;;;;;;;;;6262129;28;20017;-68
2022/01/18 06:28:05;;;;;;;20.83;7.40;;;;;;;;;;6257977;28;20477;-68
2022/01/18 06:31:05;;;;;;;30.67;10.07;;;;;;;;;;6264260;28;20078;-68
2022/01/18 06:34:06;;;;;;;18.58;6.75;;;;;;;;;;6270070;28;20115;-68
2022/01/18 06:37:07;;;;;;;29.17;10.70;;;;;;;;;;6248166;28;20112;-68
2022/01/18 06:40:08;;;;;;;24.17;9.95;;;;;;;;;;6250970;28;20009;-68
2022/01/18 06:43:08;;;;;;;30.83;11.07;;;;;;;;;;6246621;28;20025;-68
2022/01/18 06:46:09;;;;;;;23.38;9.32;;;;;;;;;;6257149;28;20020;-68
2022/01/18 06:49:09;;;;;;;57.67;20.70;;;;;;;;;;6254207;28;20021;-68
2022/01/18 06:52:10;;;;;;;20.60;8.82;;;;;;;;;;6253553;28;20021;-68
2022/01/18 06:55:12;;;;;;;21.85;11.55;;;;;;;;;;6256072;28;20021;-68
2022/01/18 06:58:12;;;;;;;23.52;9.32;;;;;;;;;;6253542;28;20501;-68
2022/01/18 07:01:13;;;;;;;26.92;8.35;;;;;;;;;;6253480;28;20022;-68
2022/01/18 07:04:13;;;;;;;27.85;10.15;;;;;;;;;;6257611;28;20021;-68
2022/01/18 07:07:13;;;;;;;22.85;11.48;;;;;;;;;;6256768;28;20454;-68
2022/01/18 07:10:14;;;;;;;25.77;8.02;;;;;;;;;;6257460;28;20429;-68
2022/01/18 07:13:15;;;;;;;17.60;8.45;;;;;;;;;;6257059;28;20021;-68
2022/01/18 07:16:15;;;;;;;23.55;8.00;;;;;;;;;;6256057;28;20020;-68
2022/01/18 07:19:15;;;;;;;25.08;9.18;;;;;;;;;;6254362;28;20014;-68
2022/01/18 07:22:16;;;;;;;20.85;10.88;;;;;;;;;;6256809;28;20020;-68
2022/01/18 07:25:18;;;;;;;19.88;7.45;;;;;;;;;;6261706;28;20052;-68
2022/01/18 07:28:19;;;;;;;18.23;8.15;;;;;;;;;;6251465;28;20508;-68
2022/01/18 07:31:19;;;;;;;15.27;6.75;;;;;;;;;;6246377;28;20067;-68
2022/01/18 07:34:19;;;;;;;22.95;9.75;;;;;;;;;;6268583;28;20156;-68
2022/01/18 07:37:20;;;;;;;17.52;6.13;;;;;;;;;;6267568;28;20381;-68
2022/01/18 07:40:20;;;;;;;18.25;6.55;;;;;;;;;;6268176;28;20094;-68
2022/01/18 07:43:22;;;;;;;16.33;7.00;;;;;;;;;;6269049;28;20473;-68
2022/01/18 07:46:22;;;;;;;26.47;9.73;;;;;;;;;;6261589;28;20334;-68
2022/01/18 07:49:22;;;;;;;21.88;9.65;;;;;;;;;;6242471;28;20318;-68
2022/01/18 07:52:22;;;;;;;29.23;7.45;;;;;;;;;;6247877;28;20048;-68
2022/01/18 07:55:23;;;;;;;21.10;5.97;;;;;;;;;;6242834;28;20026;-67
2022/01/18 07:58:23;;;;;;;27.02;7.53;;;;;;;;;;6267094;28;20017;-68
2022/01/18 08:01:23;;;;;;;21.75;7.97;;;;;;;;;;6264080;28;20485;-68
2022/01/18 08:04:23;;;;;;;19.88;5.75;;;;;;;;;;6246812;28;20025;-68
2022/01/18 08:07:24;;;;;;;23.00;6.97;;;;;;;;;;6256327;28;20016;-68
2022/01/18 08:10:30;;;;;;;18.55;5.70;;;;;;;;;;6248590;28;20021;-68
2022/01/18 08:13:37;;;;;;;17.90;6.63;;;;;;;;;;6243093;28;20504;-68
2022/01/18 08:16:47;;;;;;;12.10;5.32;;;;;;;;;;6248233;28;20105;-68
2022/01/18 08:19:48;;;;;;;18.30;7.78;;;;;;;;;;6253824;28;20017;-68
2022/01/18 08:22:48;;;;;;;28.02;9.88;;;;;;;;;;6248958;28;20029;-68
2022/01/18 08:25:48;;;;;;;29.98;8.65;;;;;;;;;;6253253;28;20041;-68
2022/01/18 08:28:49;;;;;;;40.38;14.40;;;;;;;;;;6250724;28;20508;-68
2022/01/18 08:31:49;;;;;;;35.35;12.45;;;;;;;;;;6252373;28;20021;-69
2022/01/18 08:34:49;;;;;;;28.02;7.43;;;;;;;;;;6247024;28;20113;-69
2022/01/18 08:37:50;;;;;;;21.33;9.77;;;;;;;;;;6253637;28;20017;-68
2022/01/18 08:40:50;;;;;;;19.45;9.77;;;;;;;;;;6252592;28;20021;-68
2022/01/18 08:43:51;;;;;;;22.90;6.50;;;;;;;;;;6255394;28;20098;-68
2022/01/18 08:46:51;;;;;;;21.23;5.53;;;;;;;;;;6255183;28;20096;-68
2022/01/18 08:49:52;;;;;;;14.65;4.28;;;;;;;;;;6251236;28;20021;-68
2022/01/18 08:52:52;;;;;;;24.60;7.60;;;;;;;;;;6244987;28;20031;-68
2022/01/18 08:55:53;;;;;;;22.33;7.93;;;;;;;;;;6247640;28;20473;-68
2022/01/18 08:58:53;;;;;;;26.98;10.88;;;;;;;;;;6267087;28;20559;-68
2022/01/18 09:01:53;;;;;;;19.23;6.90;;;;;;;;;;6258839;28;20021;-68
2022/01/18 09:04:53;;;;;;;22.63;9.07;;;;;;;;;;6242314;28;20018;-68
2022/01/18 09:07:56;;;;;;;12.82;5.53;;;;;;;;;;6242530;28;20022;-68
2022/01/18 09:10:56;;;;;;;10.43;3.03;;;;;;;;;;6243653;28;20083;-68
2022/01/18 09:13:56;;;;;;;27.35;7.57;;;;;;;;;;6240193;28;20017;-68
2022/01/18 09:16:57;;;;;;;14.18;5.60;;;;;;;;;;6240622;28;20048;-68
2022/01/18 09:19:58;;;;;;;10.70;4.95;;;;;;;;;;6249972;28;20025;-68
2022/01/18 09:22:58;;;;;;;17.83;6.27;;;;;;;;;;6257885;28;20171;-68
2022/01/18 09:25:59;;;;;;;18.63;7.20;;;;;;;;;;6244274;28;20658;-69
2022/01/18 09:28:59;;;;;;;18.65;5.97;;;;;;;;;;6242166;28;20400;-69
2022/01/18 09:31:59;;;;;;;18.55;9.00;;;;;;;;;;6240607;28;20034;-69
2022/01/18 09:35:00;;;;;;;23.15;5.65;;;;;;;;;;6247347;28;20390;-69
2022/01/18 09:38:00;;;;;;;17.48;6.28;;;;;;;;;;6254885;28;20074;-69
2022/01/18 09:41:08;;;;;;;9.45;3.75;;;;;;;;;;6261473;28;20070;-69
2022/01/18 09:44:08;;;;;;;9.13;4.57;;;;;;;;;;6269070;28;20060;-69
2022/01/18 09:47:09;;;;;;;10.25;4.13;;;;;;;;;;6270251;28;20286;-69
2022/01/18 09:50:10;;;;;;;22.95;7.90;;;;;;;;;;6268435;28;20027;-69
2022/01/18 09:53:12;;;;;;;16.70;6.18;;;;;;;;;;6245668;28;20029;-69
2022/01/18 09:56:12;;;;;;;16.73;6.75;;;;;;;;;;6250705;28;20063;-69
2022/01/18 09:59:12;;;;;;;16.30;5.35;;;;;;;;;;6269609;28;20388;-69
2022/01/18 10:02:13;;;;;;;14.57;5.97;;;;;;;;;;6259677;28;20108;-69
2022/01/18 10:05:33;;;;;;;12.45;6.00;;;;;;;;;;6245011;28;20383;-69
2022/01/18 10:08:34;;;;;;;25.20;6.32;;;;;;;;;;6245297;28;20028;-69
2022/01/18 10:11:34;;;;;;;14.80;7.83;;;;;;;;;;6257118;28;20017;-69
2022/01/18 10:14:36;;;;;;;20.83;11.13;;;;;;;;;;6244703;28;20121;-69
2022/01/18 10:17:38;;;;;;;25.60;9.40;;;;;;;;;;6248893;28;20033;-69
2022/01/18 10:20:38;;;;;;;;;;;;;;;;;;6250925;28;20355;-69
2022/01/18 10:23:39;;;;;;;24.50;10.30;;;;;;;;;;6259767;28;20202;-69
2022/01/18 10:26:42;;;;;;;24.30;9.32;;;;;;;;;;6255134;28;20017;-68
2022/01/18 10:29:45;;;;;;;18.20;7.75;;;;;;;;;;6247847;28;20021;-68
2022/01/18 10:33:00;;;;;;;28.27;10.05;;;;;;;;;;6244753;28;20016;-68
2022/01/18 10:36:04;;;;;;;16.88;7.55;;;;;;;;;;6245107;28;20033;-68
2022/01/18 10:39:05;;;;;;;23.02;8.55;;;;;;;;;;6264961;28;20033;-68
2022/01/18 10:42:13;;;;;;;27.38;10.88;;;;;;;;;;6268976;28;20063;-68
2022/01/18 10:45:14;;;;;;;22.73;8.77;;;;;;;;;;6257795;28;20490;-68
2022/01/18 10:48:15;;;;;;;26.95;9.20;;;;;;;;;;6261294;28;20029;-68
2022/01/18 10:51:48;;;;;;;26.02;10.18;;;;;;;;;;6257479;28;20018;-68
2022/01/18 10:54:49;;;;;;;20.58;9.50;;;;;;;;;;6209659;28;20068;-68
2022/01/18 10:57:50;;;;;;;15.65;6.90;;;;;;;;;;6262439;28;20021;-68
2022/01/18 11:00:51;;;;;;;30.55;13.73;;;;;;;;;;6253037;28;20322;-68
2022/01/18 11:04:07;;;;;;;23.73;11.18;;;;;;;;;;6244023;28;20029;-68
2022/01/18 11:07:07;;;;;;;31.17;15.13;;;;;;;;;;6244062;28;20334;-68
2022/01/18 11:10:08;;;;;;;27.45;12.20;;;;;;;;;;6254603;28;20017;-68
2022/01/18 11:13:20;;;;;;;15.65;8.82;;;;;;;;;;6247569;28;20036;-69
2022/01/18 11:16:26;;;;;;;30.17;11.55;;;;;;;;;;6250839;28;20122;-68
2022/01/18 11:22:26;;;;;;;20.80;7.13;;;;;;;;;;6255401;28;20155;-69
2022/01/18 11:25:29;;;;;;;33.00;12.57;;;;;;;;;;6254897;28;20472;-69
2022/01/18 11:28:29;;;;;;;;;;;;;;;;;;6254799;28;20021;-70
2022/01/18 11:31:30;;;;;;;17.80;8.00;;;;;;;;;;6254070;28;20391;-69
2022/01/18 11:34:49;;;;;;;30.15;15.70;;;;;;;;;;6254517;28;20045;-69
2022/01/18 11:38:07;;;;;;;29.60;12.57;;;;;;;;;;6258274;28;20536;-70
2022/01/18 11:41:20;;;;;;;32.72;13.95;;;;;;;;;;6265578;28;20017;-70
2022/01/18 11:44:27;;;;;;;33.72;13.40;;;;;;;;;;6257686;28;20023;-70
2022/01/18 11:47:27;;;;;;;27.98;10.00;;;;;;;;;;6244352;28;20021;-70
2022/01/18 11:50:31;;;;;;;26.02;10.52;;;;;;;;;;6243737;28;20101;-70
2022/01/18 11:53:42;;;;;;;20.27;9.27;;;;;;;;;;6249755;28;20020;-70
2022/01/18 11:56:42;;;;;;;20.08;9.15;;;;;;;;;;6255247;28;20033;-70
2022/01/18 11:59:43;;;;;;;21.17;8.10;;;;;;;;;;6255235;28;20187;-70
2022/01/18 12:02:46;;;;;;;16.87;7.87;;;;;;;;;;6252801;28;20117;-70
2022/01/18 12:05:46;;;;;;;21.88;8.77;;;;;;;;;;6243653;28;20503;-70
2022/01/18 12:08:47;;;;;;;21.40;9.57;;;;;;;;;;6245718;28;20025;-70
2022/01/18 12:11:47;;;;;;;34.55;14.93;;;;;;;;;;6255621;28;20033;-70
2022/01/18 12:14:47;;;;;;;29.50;10.88;;;;;;;;;;6253460;28;20100;-70
2022/01/18 12:17:54;;;;;;;19.33;9.10;;;;;;;;;;6255517;28;20028;-70
2022/01/18 12:20:55;;;;;;;22.65;8.25;;;;;;;;;;6254597;28;20024;-70
2022/01/18 12:23:57;;;;;;;19.08;8.52;;;;;;;;;;6256893;28;20009;-70
2022/01/18 12:27:03;;;;;;;19.55;8.88;;;;;;;;;;6252715;28;20648;-71
2022/01/18 12:30:25;;;;;;;16.85;7.60;;;;;;;;;;6253436;28;20486;-70
2022/01/18 12:33:25;;;;;;;17.60;9.00;;;;;;;;;;6252402;28;20401;-71
2022/01/18 12:36:27;;;;;;;24.00;8.65;;;;;;;;;;6252071;28;20021;-71
2022/01/18 12:39:28;;;;;;;30.60;12.00;;;;;;;;;;6255979;28;20013;-71
2022/01/18 12:45:51;;;;;;;55.08;17.98;;;;;;;;;;6251891;28;20598;-71
2022/01/18 12:48:55;;;;;;;69.35;24.20;;;;;;;;;;6253852;28;20047;-71
2022/01/18 12:51:56;;;;;;;30.80;11.77;;;;;;;;;;6249580;28;20033;-71
2022/01/18 12:54:57;;;;;;;35.50;14.48;;;;;;;;;;6255454;28;20373;-71
2022/01/18 12:58:05;;;;;;;42.75;14.82;;;;;;;;;;6261861;28;20024;-71
2022/01/18 13:01:07;;;;;;;77.63;47.05;;;;;;;;;;6265821;28;20017;-71
2022/01/18 13:04:07;;;;;;;;;;;;;;;;;;6241338;28;20036;-71
2022/01/18 13:07:08;;;;;;;35.60;15.32;;;;;;;;;;6241059;28;19908;-71
2022/01/18 13:10:08;;;;;;;33.95;17.10;;;;;;;;;;6244131;28;20173;-71
2022/01/18 13:13:09;;;;;;;53.95;33.58;;;;;;;;;;6242403;28;20080;-71
2022/01/18 13:25:56;;;;;;;41.00;17.73;;;;;;;;;;6255213;28;20026;-71
2022/01/18 13:29:08;;;;;;;49.13;23.00;;;;;;;;;;6243425;28;20017;-71
2022/01/18 13:32:16;;;;;;;40.97;20.52;;;;;;;;;;6240870;28;20213;-71
2022/01/18 13:35:28;;;;;;;43.45;23.15;;;;;;;;;;6240731;28;20041;-71
2022/01/18 13:38:31;;;;;;;52.70;27.25;;;;;;;;;;6241466;28;20060;-71
2022/01/18 13:41:31;;;;;;;54.45;25.05;;;;;;;;;;6264450;28;20021;-71
2022/01/18 13:44:32;;;;;;;126.03;56.10;;;;;;;;;;6254335;28;20033;-72
2022/01/18 13:47:49;;;;;;;61.00;31.65;;;;;;;;;;6255666;28;20115;-72
2022/01/18 13:50:56;;;;;;;47.63;28.50;;;;;;;;;;6245034;28;20033;-71
2022/01/18 13:53:59;;;;;;;44.33;24.73;;;;;;;;;;6242620;28;20025;-72
2022/01/18 13:57:00;;;;;;;33.92;13.70;;;;;;;;;;6250357;28;20040;-72
2022/01/18 14:00:08;;;;;;;24.85;11.48;;;;;;;;;;6254385;28;20025;-72
2022/01/18 14:03:09;;;;;;;36.28;16.77;;;;;;;;;;6244717;28;20056;-72
2022/01/18 14:06:11;;;;;;;36.15;14.48;;;;;;;;;;6241154;28;20029;-72
2022/01/18 14:09:13;;;;;;;23.67;8.45;;;;;;;;;;6257042;28;20025;-72
2022/01/18 14:12:14;;;;;;;34.45;13.30;;;;;;;;;;6263893;28;20024;-72
2022/01/18 14:15:33;;;;;;;20.58;9.02;;;;;;;;;;6265988;28;20017;-72
2022/01/18 14:18:49;;;;;;;21.85;10.38;;;;;;;;;;6241627;28;20092;-72
2022/01/18 14:21:50;;;;;;;37.58;14.05;;;;;;;;;;6248789;28;20051;-72
2022/01/18 14:24:51;;;;;;;24.33;13.68;;;;;;;;;;6253850;28;20373;-72
2022/01/18 14:27:51;;;;;;;33.70;14.03;;;;;;;;;;6249961;28;20037;-72
2022/01/18 14:30:51;;;;;;;36.88;16.95;;;;;;;;;;6243899;28;20030;-72
2022/01/18 14:33:51;;;;;;;30.30;13.93;;;;;;;;;;6243593;28;20147;-72
2022/01/18 14:36:55;;;;;;;131.82;55.63;;;;;;;;;;6245507;28;20359;-72
2022/01/18 14:40:02;;;;;;;43.50;24.23;;;;;;;;;;6255131;28;20444;-72
2022/01/18 14:43:10;;;;;;;49.97;25.48;;;;;;;;;;6267893;28;20066;-72
2022/01/18 14:46:26;;;;;;;51.88;21.45;;;;;;;;;;6263334;28;20024;-72
2022/01/18 14:49:27;;;;;;;56.25;21.58;;;;;;;;;;6265778;28;20020;-72
2022/01/18 14:52:28;;;;;;;65.47;31.35;;;;;;;;;;6266128;28;20027;-72
2022/01/18 14:55:29;;;;;;;38.28;16.85;;;;;;;;;;6269446;28;20017;-72
2022/01/18 14:58:29;;;;;;;41.53;15.75;;;;;;;;;;6269831;28;20048;-72
2022/01/18 15:01:29;;;;;;;43.28;20.40;;;;;;;;;;6263814;28;20025;-72
2022/01/18 15:04:29;;;;;;;55.03;25.40;;;;;;;;;;6244264;28;20072;-72
2022/01/18 15:07:30;;;;;;;45.60;22.90;;;;;;;;;;6262296;28;20350;-73
2022/01/18 15:10:30;;;;;;;36.13;17.55;;;;;;;;;;6261832;28;20457;-72
2022/01/18 15:13:31;;;;;;;78.32;33.38;;;;;;;;;;6267448;28;20029;-72
2022/01/18 15:16:31;;;;;;;47.92;23.60;;;;;;;;;;6268882;28;20484;-73
2022/01/18 15:19:33;;;;;;;26.05;11.90;;;;;;;;;;6269528;28;20049;-72
2022/01/18 15:22:34;;;;;;;43.22;22.20;;;;;;;;;;6268195;28;20020;-72
2022/01/18 15:25:34;;;;;;;37.45;16.08;;;;;;;;;;6258190;28;20022;-72
2022/01/18 15:28:35;;;;;;;33.17;14.57;;;;;;;;;;6253209;28;20434;-72
2022/01/18 15:31:35;;;;;;;50.78;21.15;;;;;;;;;;6267007;28;20276;-72
2022/01/18 15:34:36;;;;;;;52.55;24.00;;;;;;;;;;6264690;28;20091;-72
2022/01/18 15:37:36;;;;;;;62.50;28.15;;;;;;;;;;6265886;28;20481;-72
2022/01/18 15:40:36;;;;;;;42.08;21.45;;;;;;;;;;6266912;28;20021;-72
2022/01/18 15:43:36;;;;;;;30.02;15.15;;;;;;;;;;6267357;28;20017;-72
2022/01/18 15:46:37;;;;;;;49.45;19.55;;;;;;;;;;6256418;28;20492;-72
2022/01/18 15:49:38;;;;;;;36.63;15.98;;;;;;;;;;6267248;28;20039;-72
2022/01/18 15:52:38;;;;;;;36.35;15.82;;;;;;;;;;6264111;28;20044;-72
2022/01/18 15:55:38;;;;;;;36.78;18.98;;;;;;;;;;6266225;28;20104;-72
2022/01/18 15:58:39;;;;;;;46.83;18.15;;;;;;;;;;6263223;28;20013;-72
2022/01/18 16:01:39;;;;;;;47.95;18.05;;;;;;;;;;6256824;28;20011;-72
2022/01/18 16:04:39;;;;;;;39.00;18.50;;;;;;;;;;6254751;28;20025;-72
2022/01/18 16:07:40;;;;;;;32.70;16.00;;;;;;;;;;6257988;28;20108;-72
2022/01/18 16:10:41;;;;;;;47.67;19.50;;;;;;;;;;6246774;28;20036;-72
2022/01/18 16:13:42;;;;;;;40.58;15.80;;;;;;;;;;6248692;28;20053;-72
2022/01/18 16:16:42;;;;;;;30.05;15.45;;;;;;;;;;6246745;28;20016;-72
2022/01/18 16:19:46;;;;;;;23.67;12.25;;;;;;;;;;6257449;28;20385;-72
2022/01/18 16:22:46;;;;;;;43.20;14.52;;;;;;;;;;6255098;28;20028;-72
2022/01/18 16:25:47;;;;;;;38.33;14.70;;;;;;;;;;6245161;28;20533;-72
2022/01/18 16:28:47;;;;;;;44.42;16.83;;;;;;;;;;6254706;28;20025;-72
2022/01/18 16:31:48;;;;;;;42.30;15.63;;;;;;;;;;6254815;28;20110;-72
2022/01/18 16:34:48;;;;;;;36.40;14.98;;;;;;;;;;6258802;28;20044;-72
2022/01/18 16:37:48;;;;;;;35.47;14.25;;;;;;;;;;6262538;28;20087;-72
2022/01/18 16:40:49;;;;;;;62.15;26.42;;;;;;;;;;6249686;28;20108;-72
2022/01/18 16:43:49;;;;;;;47.50;21.08;;;;;;;;;;6241259;28;20469;-72
2022/01/18 16:46:50;;;;;;;92.43;41.17;;;;;;;;;;6244845;28;20599;-72
2022/01/18 16:49:50;;;;;;;114.72;48.38;;;;;;;;;;6254295;28;20013;-72
2022/01/18 16:52:50;;;;;;;101.25;43.95;;;;;;;;;;6254323;28;20091;-72
2022/01/18 16:55:51;;;;;;;40.92;20.80;;;;;;;;;;6252007;28;20056;-72
2022/01/18 16:58:53;;;;;;;44.50;17.92;;;;;;;;;;6256226;28;20428;-72
2022/01/18 17:01:53;;;;;;;43.60;18.75;;;;;;;;;;6249409;28;20020;-72
2022/01/18 17:04:54;;;;;;;34.58;14.73;;;;;;;;;;6256783;28;20358;-72
2022/01/18 17:07:54;;;;;;;52.05;21.83;;;;;;;;;;6257556;28;20021;-72
2022/01/18 17:10:54;;;;;;;32.58;14.60;;;;;;;;;;6248197;28;20504;-72
2022/01/18 17:13:54;;;;;;;42.47;16.75;;;;;;;;;;6244309;28;20013;-72
2022/01/18 17:16:55;;;;;;;66.07;22.58;;;;;;;;;;6260824;28;20013;-73
2022/01/18 17:19:56;;;;;;;51.88;19.63;;;;;;;;;;6242388;28;20040;-72
2022/01/18 17:22:56;;;;;;;22.77;9.80;;;;;;;;;;6248094;28;20018;-72
2022/01/18 17:25:57;;;;;;;23.50;11.00;;;;;;;;;;6253357;28;20101;-72
2022/01/18 17:28:57;;;;;;;17.23;9.50;;;;;;;;;;6253868;28;20020;-72
2022/01/18 17:31:58;;;;;;;25.80;12.05;;;;;;;;;;6249823;28;20385;-72
2022/01/18 17:34:58;;;;;;;26.90;11.68;;;;;;;;;;6258876;28;20049;-72
2022/01/18 17:37:58;;;;;;;32.88;15.52;;;;;;;;;;6247586;28;20104;-73
2022/01/18 17:40:59;;;;;;;27.65;12.48;;;;;;;;;;6260161;28;20096;-73
2022/01/18 17:43:59;;;;;;;42.70;18.52;;;;;;;;;;6258517;28;20032;-72
2022/01/18 17:46:59;;;;;;;28.02;13.98;;;;;;;;;;6261618;28;20024;-73
2022/01/18 17:50:00;;;;;;;35.63;15.52;;;;;;;;;;6266450;28;20013;-72
2022/01/18 17:53:01;;;;;;;29.33;15.32;;;;;;;;;;6241805;28;20054;-73
2022/01/18 17:56:01;;;;;;;28.50;13.23;;;;;;;;;;6245347;28;20069;-73
2022/01/18 17:59:01;;;;;;;31.85;15.32;;;;;;;;;;6268716;28;20024;-73
2022/01/18 18:02:02;;;;;;;40.47;20.63;;;;;;;;;;6268582;28;20017;-73
2022/01/18 18:05:02;;;;;;;36.10;14.00;;;;;;;;;;6267118;28;20021;-72
2022/01/18 18:08:02;;;;;;;29.23;12.38;;;;;;;;;;6251098;28;20155;-72
2022/01/18 18:11:03;;;;;;;32.03;11.00;;;;;;;;;;6252514;28;20385;-72
2022/01/18 18:14:03;;;;;;;25.48;6.97;;;;;;;;;;6255801;28;20100;-75
2022/01/18 18:17:03;;;;;;;31.33;14.25;;;;;;;;;;6260138;28;20108;-72
2022/01/18 18:20:04;;;;;;;39.75;14.45;;;;;;;;;;6257945;28;20021;-72
2022/01/18 18:23:05;;;;;;;35.05;13.43;;;;;;;;;;6259305;28;20017;-72
2022/01/18 18:26:05;;;;;;;35.45;17.15;;;;;;;;;;6258682;28;20017;-72
2022/01/18 18:29:06;;;;;;;35.90;14.23;;;;;;;;;;6256194;28;20044;-72
2022/01/18 18:32:06;;;;;;;50.78;18.92;;;;;;;;;;6250551;28;20034;-72
2022/01/18 18:35:07;;;;;;;70.45;33.08;;;;;;;;;;6269113;28;20136;-72
2022/01/18 18:38:09;;;;;;;53.38;20.23;;;;;;;;;;6248334;28;20022;-73
2022/01/18 18:41:17;;;;;;;65.05;31.20;;;;;;;;;;6265074;28;20024;-72
2022/01/18 18:44:22;;;;;;;61.15;29.80;;;;;;;;;;6267777;28;20343;-72
2022/01/18 18:47:22;;;;;;;86.30;34.60;;;;;;;;;;6249942;28;20047;-72
2022/01/18 18:50:22;;;;;;;51.88;24.48;;;;;;;;;;6258252;28;20052;-72
2022/01/18 18:53:23;;;;;;;73.32;31.05;;;;;;;;;;6253436;28;20044;-73
2022/01/18 18:56:23;;;;;;;79.72;33.78;;;;;;;;;;6253387;28;20074;-72
2022/01/18 18:59:54;;;;;;;58.13;27.40;;;;;;;;;;6250307;28;20099;-72
2022/01/18 19:03:02;;;;;;;61.80;26.55;;;;;;;;;;6251368;28;20017;-72
2022/01/18 19:06:04;;;;;;;71.35;25.95;;;;;;;;;;6253422;28;20030;-72
2022/01/18 19:09:05;;;;;;;114.75;41.95;;;;;;;;;;6253909;28;20528;-72
2022/01/18 19:12:05;;;;;;;99.22;36.40;;;;;;;;;;6256845;28;20021;-72
2022/01/18 19:15:06;;;;;;;88.55;38.67;;;;;;;;;;6254428;28;20182;-72